AQQ10 IFIS: Internet Flight Information System
logo dgac
Martes 21 de Septiembre del 2021
Buscar por aerodromo o helipuerto
Ingrese nombre de aeródromo, localidad o designador OACI:
METAR del 21-09-2021 a las 10:00 UTC
Para mayor información visite www.meteochile.cl
METAR SCPQ 211000Z AUTO 20006KT 4800 NCD 01/01 Q1021
Viento: dirección 200 grados, velocidad 6 nudos
Visibilidad: 4800 metros
Temperatura: 1 °C
Rocío: 1 °C
Humedad_relativa: 100%
Presión: 1021 hPa
METAR del 21-09-2021 a las 09:00 UTC
Para mayor información visite www.meteochile.cl
METAR SCPQ 210900Z AUTO 21009KT 4900 NCD 02/02 Q1022
Viento: dirección 210 grados, velocidad 9 nudos
Visibilidad: 4900 metros
Temperatura: 2 °C
Rocío: 2 °C
Humedad_relativa: 100%
Presión: 1022 hPa
METAR del 21-09-2021 a las 08:00 UTC
Para mayor información visite www.meteochile.cl
METAR SCPQ 210800Z AUTO 20006KT CAVOK 03/02 Q1023
Viento: dirección 200 grados, velocidad 6 nudos
Visibilidad: 10 km o más,
    sin nubes bajo los 5.000 pies o bajo del MSA (Mínimo de Seguridad del Aeródromo),
    sin cumulonimbus, y sin fenómenos de tiempo significativo en el aeródromo o alrededores
Temperatura: 3 °C
Rocío: 2 °C
Humedad_relativa: 93%
Presión: 1023 hPa
METAR del 21-09-2021 a las 07:00 UTC
Para mayor información visite www.meteochile.cl
METAR SCPQ 210700Z AUTO 19008KT CAVOK 04/02 Q1024
Viento: dirección 190 grados, velocidad 8 nudos
Visibilidad: 10 km o más,
    sin nubes bajo los 5.000 pies o bajo del MSA (Mínimo de Seguridad del Aeródromo),
    sin cumulonimbus, y sin fenómenos de tiempo significativo en el aeródromo o alrededores
Temperatura: 4 °C
Rocío: 2 °C
Humedad_relativa: 87%
Presión: 1024 hPa
METAR del 21-09-2021 a las 06:00 UTC
Para mayor información visite www.meteochile.cl
METAR SCPQ 210600Z AUTO 19008KT CAVOK 04/03 Q1025
Viento: dirección 190 grados, velocidad 8 nudos
Visibilidad: 10 km o más,
    sin nubes bajo los 5.000 pies o bajo del MSA (Mínimo de Seguridad del Aeródromo),
    sin cumulonimbus, y sin fenómenos de tiempo significativo en el aeródromo o alrededores
Temperatura: 4 °C
Rocío: 3 °C
Humedad_relativa: 93%
Presión: 1025 hPa
METAR del 21-09-2021 a las 05:00 UTC
Para mayor información visite www.meteochile.cl
METAR SCPQ 210500Z AUTO 21007KT 4800 NCD 04/03 Q1025
Viento: dirección 210 grados, velocidad 7 nudos
Visibilidad: 4800 metros
Temperatura: 4 °C
Rocío: 3 °C
Humedad_relativa: 93%
Presión: 1025 hPa
METAR del 21-09-2021 a las 04:00 UTC
Para mayor información visite www.meteochile.cl
METAR SCPQ 210400Z AUTO 21007KT 5000 NCD 04/03 Q1026
Viento: dirección 210 grados, velocidad 7 nudos
Visibilidad: 5000 metros
Temperatura: 4 °C
Rocío: 3 °C
Humedad_relativa: 93%
Presión: 1026 hPa
METAR del 21-09-2021 a las 03:00 UTC
Para mayor información visite www.meteochile.cl
METAR SCPQ 210300Z AUTO 19007KT CAVOK 05/03 Q1027
Viento: dirección 190 grados, velocidad 7 nudos
Visibilidad: 10 km o más,
    sin nubes bajo los 5.000 pies o bajo del MSA (Mínimo de Seguridad del Aeródromo),
    sin cumulonimbus, y sin fenómenos de tiempo significativo en el aeródromo o alrededores
Temperatura: 5 °C
Rocío: 3 °C
Humedad_relativa: 87%
Presión: 1027 hPa
METAR del 21-09-2021 a las 02:00 UTC
Para mayor información visite www.meteochile.cl
METAR SCPQ 210200Z AUTO 19008KT 8000 NCD 06/04 Q1028
Viento: dirección 190 grados, velocidad 8 nudos
Visibilidad: 8000 metros
Temperatura: 6 °C
Rocío: 4 °C
Humedad_relativa: 87%
Presión: 1028 hPa
METAR del 21-09-2021 a las 01:00 UTC
Para mayor información visite www.meteochile.cl
METAR SCPQ 210100Z AUTO 16006KT CAVOK 06/04 Q1028
Viento: dirección 160 grados, velocidad 6 nudos
Visibilidad: 10 km o más,
    sin nubes bajo los 5.000 pies o bajo del MSA (Mínimo de Seguridad del Aeródromo),
    sin cumulonimbus, y sin fenómenos de tiempo significativo en el aeródromo o alrededores
Temperatura: 6 °C
Rocío: 4 °C
Humedad_relativa: 87%
Presión: 1028 hPa